sensor_id;sensor_type;location;lat;lon;timestamp;temperature;humidity
13569;DHT22;6856;51.460;7.158;2022-07-29T00:22:42;22.70;41.50
13569;DHT22;6856;51.460;7.158;2022-07-29T00:25:17;22.70;41.90
13569;DHT22;6856;51.460;7.158;2022-07-29T00:27:51;22.60;42.10
13569;DHT22;6856;51.460;7.158;2022-07-29T00:30:25;22.60;42.00
13569;DHT22;6856;51.460;7.158;2022-07-29T00:33:00;22.60;42.10
13569;DHT22;6856;51.460;7.158;2022-07-29T00:35:40;22.60;42.30
13569;DHT22;6856;51.460;7.158;2022-07-29T00:38:18;22.60;42.20
13569;DHT22;6856;51.460;7.158;2022-07-29T00:40:54;22.60;42.30
13569;DHT22;6856;51.460;7.158;2022-07-29T00:43:28;22.60;42.20
13569;DHT22;6856;51.460;7.158;2022-07-29T00:46:02;22.60;42.30
13569;DHT22;6856;51.460;7.158;2022-07-29T00:48:37;22.50;42.30
13569;DHT22;6856;51.460;7.158;2022-07-29T00:51:15;22.50;42.20
13569;DHT22;6856;51.460;7.158;2022-07-29T00:53:51;22.50;42.20
13569;DHT22;6856;51.460;7.158;2022-07-29T00:56:25;22.50;42.10
13569;DHT22;6856;51.460;7.158;2022-07-29T00:59:00;22.50;42.30
13569;DHT22;6856;51.460;7.158;2022-07-29T01:01:34;22.50;42.20
13569;DHT22;6856;51.460;7.158;2022-07-29T01:04:08;22.50;42.20
13569;DHT22;6856;51.460;7.158;2022-07-29T01:06:42;22.50;42.30
13569;DHT22;6856;51.460;7.158;2022-07-29T01:09:19;22.60;42.30
13569;DHT22;6856;51.460;7.158;2022-07-29T01:12:16;22.40;42.20
13569;DHT22;6856;51.460;7.158;2022-07-29T01:14:53;22.40;42.20
13569;DHT22;6856;51.460;7.158;2022-07-29T01:17:33;22.40;42.30
13569;DHT22;6856;51.460;7.158;2022-07-29T01:20:26;22.40;42.30
13569;DHT22;6856;51.460;7.158;2022-07-29T01:23:40;22.30;42.50
13569;DHT22;6856;51.460;7.158;2022-07-29T01:26:38;22.30;42.70
13569;DHT22;6856;51.460;7.158;2022-07-29T01:29:24;22.30;42.50
13569;DHT22;6856;51.460;7.158;2022-07-29T01:32:14;22.30;42.60
13569;DHT22;6856;51.460;7.158;2022-07-29T01:35:04;22.20;42.50
13569;DHT22;6856;51.460;7.158;2022-07-29T01:37:47;22.30;42.60
13569;DHT22;6856;51.460;7.158;2022-07-29T01:40:29;22.20;43.20
13569;DHT22;6856;51.460;7.158;2022-07-29T01:43:18;22.20;42.60
13569;DHT22;6856;51.460;7.158;2022-07-29T01:46:00;22.10;42.80
13569;DHT22;6856;51.460;7.158;2022-07-29T01:48:40;22.10;42.70
13569;DHT22;6856;51.460;7.158;2022-07-29T01:51:28;22.10;42.90
13569;DHT22;6856;51.460;7.158;2022-07-29T01:54:10;22.20;43.00
13569;DHT22;6856;51.460;7.158;2022-07-29T01:56:51;22.10;43.00
13569;DHT22;6856;51.460;7.158;2022-07-29T01:59:34;22.10;42.90
13569;DHT22;6856;51.460;7.158;2022-07-29T02:02:12;22.00;43.00
13569;DHT22;6856;51.460;7.158;2022-07-29T02:04:50;22.00;43.20
13569;DHT22;6856;51.460;7.158;2022-07-29T02:07:28;22.00;43.20
13569;DHT22;6856;51.460;7.158;2022-07-29T02:10:08;22.00;43.20
13569;DHT22;6856;51.460;7.158;2022-07-29T02:12:45;22.00;43.40
13569;DHT22;6856;51.460;7.158;2022-07-29T02:15:22;21.90;43.20
13569;DHT22;6856;51.460;7.158;2022-07-29T02:18:01;21.90;43.30
13569;DHT22;6856;51.460;7.158;2022-07-29T02:20:40;21.90;43.50
13569;DHT22;6856;51.460;7.158;2022-07-29T02:23:20;21.90;43.50
13569;DHT22;6856;51.460;7.158;2022-07-29T02:25:57;21.90;43.60
13569;DHT22;6856;51.460;7.158;2022-07-29T02:28:33;21.90;43.60
13569;DHT22;6856;51.460;7.158;2022-07-29T02:31:08;21.90;43.70
13569;DHT22;6856;51.460;7.158;2022-07-29T02:33:46;21.90;43.80
13569;DHT22;6856;51.460;7.158;2022-07-29T02:36:22;21.80;43.80
13569;DHT22;6856;51.460;7.158;2022-07-29T02:38:58;21.80;43.80
13569;DHT22;6856;51.460;7.158;2022-07-29T02:41:40;21.80;43.80
13569;DHT22;6856;51.460;7.158;2022-07-29T02:44:19;21.80;44.00
13569;DHT22;6856;51.460;7.158;2022-07-29T02:47:02;21.80;43.90
13569;DHT22;6856;51.460;7.158;2022-07-29T02:49:48;21.80;44.20
13569;DHT22;6856;51.460;7.158;2022-07-29T02:52:33;21.70;44.20
13569;DHT22;6856;51.460;7.158;2022-07-29T02:55:18;21.70;44.20
13569;DHT22;6856;51.460;7.158;2022-07-29T02:58:00;21.70;44.30
13569;DHT22;6856;51.460;7.158;2022-07-29T03:00:38;21.70;44.40
13569;DHT22;6856;51.460;7.158;2022-07-29T03:03:16;21.70;44.50
13569;DHT22;6856;51.460;7.158;2022-07-29T03:05:55;21.70;44.40
13569;DHT22;6856;51.460;7.158;2022-07-29T03:08:31;21.70;44.60
13569;DHT22;6856;51.460;7.158;2022-07-29T03:11:07;21.70;44.60
13569;DHT22;6856;51.460;7.158;2022-07-29T03:13:42;21.70;44.70
13569;DHT22;6856;51.460;7.158;2022-07-29T03:16:18;21.70;44.60
13569;DHT22;6856;51.460;7.158;2022-07-29T03:18:54;21.60;44.60
13569;DHT22;6856;51.460;7.158;2022-07-29T03:21:30;21.60;44.50
13569;DHT22;6856;51.460;7.158;2022-07-29T03:24:05;21.60;44.70
13569;DHT22;6856;51.460;7.158;2022-07-29T03:26:43;21.60;45.00
13569;DHT22;6856;51.460;7.158;2022-07-29T03:29:18;21.60;45.20
13569;DHT22;6856;51.460;7.158;2022-07-29T03:31:52;21.60;45.40
13569;DHT22;6856;51.460;7.158;2022-07-29T03:34:31;21.50;45.60
13569;DHT22;6856;51.460;7.158;2022-07-29T03:37:07;21.50;45.60
13569;DHT22;6856;51.460;7.158;2022-07-29T03:39:44;21.50;45.30
13569;DHT22;6856;51.460;7.158;2022-07-29T03:42:23;21.50;45.30
13569;DHT22;6856;51.460;7.158;2022-07-29T03:45:07;21.50;45.30
13569;DHT22;6856;51.460;7.158;2022-07-29T03:47:48;21.40;45.50
13569;DHT22;6856;51.460;7.158;2022-07-29T03:50:32;21.40;45.70
13569;DHT22;6856;51.460;7.158;2022-07-29T03:53:09;21.30;45.40
13569;DHT22;6856;51.460;7.158;2022-07-29T03:55:48;21.30;45.50
13569;DHT22;6856;51.460;7.158;2022-07-29T03:58:27;21.30;45.70
13569;DHT22;6856;51.460;7.158;2022-07-29T04:01:06;21.20;45.60
13569;DHT22;6856;51.460;7.158;2022-07-29T04:03:42;21.20;45.80
13569;DHT22;6856;51.460;7.158;2022-07-29T04:06:17;21.20;45.70
13569;DHT22;6856;51.460;7.158;2022-07-29T04:08:53;21.20;45.40
13569;DHT22;6856;51.460;7.158;2022-07-29T04:11:28;21.10;45.60
13569;DHT22;6856;51.460;7.158;2022-07-29T04:14:02;21.10;45.80
13569;DHT22;6856;51.460;7.158;2022-07-29T04:16:37;21.10;45.90
13569;DHT22;6856;51.460;7.158;2022-07-29T04:19:11;21.10;45.90
13569;DHT22;6856;51.460;7.158;2022-07-29T04:21:45;21.10;45.90
13569;DHT22;6856;51.460;7.158;2022-07-29T04:24:21;21.10;46.10
13569;DHT22;6856;51.460;7.158;2022-07-29T04:26:55;21.10;46.30
13569;DHT22;6856;51.460;7.158;2022-07-29T04:29:29;21.00;46.20
13569;DHT22;6856;51.460;7.158;2022-07-29T04:32:04;21.00;46.20
13569;DHT22;6856;51.460;7.158;2022-07-29T04:34:42;20.80;46.60
13569;DHT22;6856;51.460;7.158;2022-07-29T04:37:18;20.90;47.20
13569;DHT22;6856;51.460;7.158;2022-07-29T04:39:54;20.90;47.00
13569;DHT22;6856;51.460;7.158;2022-07-29T04:42:28;20.90;47.50
13569;DHT22;6856;51.460;7.158;2022-07-29T04:45:03;20.90;47.40
13569;DHT22;6856;51.460;7.158;2022-07-29T04:47:39;20.80;47.60
13569;DHT22;6856;51.460;7.158;2022-07-29T04:50:13;20.80;47.80
13569;DHT22;6856;51.460;7.158;2022-07-29T04:52:49;20.70;47.70
13569;DHT22;6856;51.460;7.158;2022-07-29T04:55:25;20.70;47.90
13569;DHT22;6856;51.460;7.158;2022-07-29T04:57:59;20.60;47.90
13569;DHT22;6856;51.460;7.158;2022-07-29T05:00:34;20.60;48.10
13569;DHT22;6856;51.460;7.158;2022-07-29T05:03:08;20.60;48.50
13569;DHT22;6856;51.460;7.158;2022-07-29T05:05:43;20.50;48.50
13569;DHT22;6856;51.460;7.158;2022-07-29T05:08:18;20.60;48.60
13569;DHT22;6856;51.460;7.158;2022-07-29T05:10:53;20.50;48.60
13569;DHT22;6856;51.460;7.158;2022-07-29T05:13:34;20.60;48.90
13569;DHT22;6856;51.460;7.158;2022-07-29T05:16:18;20.60;49.00
13569;DHT22;6856;51.460;7.158;2022-07-29T05:18:52;20.60;48.60
13569;DHT22;6856;51.460;7.158;2022-07-29T05:21:26;20.60;48.70
13569;DHT22;6856;51.460;7.158;2022-07-29T05:24:06;20.60;48.60
13569;DHT22;6856;51.460;7.158;2022-07-29T05:26:43;20.60;48.80
13569;DHT22;6856;51.460;7.158;2022-07-29T05:29:18;20.60;48.70
13569;DHT22;6856;51.460;7.158;2022-07-29T05:32:12;20.60;48.80
13569;DHT22;6856;51.460;7.158;2022-07-29T05:34:46;20.60;48.90
13569;DHT22;6856;51.460;7.158;2022-07-29T05:37:23;20.60;48.70
13569;DHT22;6856;51.460;7.158;2022-07-29T05:39:57;20.60;48.30
13569;DHT22;6856;51.460;7.158;2022-07-29T05:42:32;20.60;48.80
13569;DHT22;6856;51.460;7.158;2022-07-29T05:45:08;20.60;48.70
13569;DHT22;6856;51.460;7.158;2022-07-29T05:47:43;20.70;48.90
13569;DHT22;6856;51.460;7.158;2022-07-29T05:50:18;20.70;49.00
13569;DHT22;6856;51.460;7.158;2022-07-29T05:52:55;20.70;49.00
13569;DHT22;6856;51.460;7.158;2022-07-29T05:55:29;20.70;48.90
13569;DHT22;6856;51.460;7.158;2022-07-29T05:58:05;20.70;48.80
13569;DHT22;6856;51.460;7.158;2022-07-29T06:00:40;20.70;49.00
13569;DHT22;6856;51.460;7.158;2022-07-29T06:03:15;20.70;49.10
13569;DHT22;6856;51.460;7.158;2022-07-29T06:05:49;20.70;49.20
13569;DHT22;6856;51.460;7.158;2022-07-29T06:08:23;20.70;49.20
13569;DHT22;6856;51.460;7.158;2022-07-29T06:10:58;20.70;49.40
13569;DHT22;6856;51.460;7.158;2022-07-29T06:13:35;20.70;49.30
13569;DHT22;6856;51.460;7.158;2022-07-29T06:16:09;20.80;49.30
13569;DHT22;6856;51.460;7.158;2022-07-29T06:18:59;20.80;49.20
13569;DHT22;6856;51.460;7.158;2022-07-29T06:21:41;20.80;49.40
13569;DHT22;6856;51.460;7.158;2022-07-29T06:24:17;20.80;49.40
13569;DHT22;6856;51.460;7.158;2022-07-29T06:26:52;20.80;49.30
13569;DHT22;6856;51.460;7.158;2022-07-29T06:29:28;20.80;49.40
13569;DHT22;6856;51.460;7.158;2022-07-29T06:32:03;20.80;49.60
13569;DHT22;6856;51.460;7.158;2022-07-29T06:34:38;20.80;49.70
13569;DHT22;6856;51.460;7.158;2022-07-29T06:37:15;20.90;49.80
13569;DHT22;6856;51.460;7.158;2022-07-29T06:39:51;20.90;49.80
13569;DHT22;6856;51.460;7.158;2022-07-29T06:42:48;20.90;49.80
13569;DHT22;6856;51.460;7.158;2022-07-29T06:45:24;20.90;49.80
13569;DHT22;6856;51.460;7.158;2022-07-29T06:48:02;20.90;49.40
13569;DHT22;6856;51.460;7.158;2022-07-29T06:50:36;20.90;49.80
13569;DHT22;6856;51.460;7.158;2022-07-29T06:53:12;20.90;49.70
13569;DHT22;6856;51.460;7.158;2022-07-29T06:55:46;21.00;49.60
13569;DHT22;6856;51.460;7.158;2022-07-29T06:58:21;21.00;49.70
13569;DHT22;6856;51.460;7.158;2022-07-29T07:00:57;21.00;49.70
13569;DHT22;6856;51.460;7.158;2022-07-29T07:03:35;21.00;50.30
13569;DHT22;6856;51.460;7.158;2022-07-29T07:06:11;21.10;49.50
13569;DHT22;6856;51.460;7.158;2022-07-29T07:08:46;21.10;49.70
13569;DHT22;6856;51.460;7.158;2022-07-29T07:11:20;21.20;49.80
13569;DHT22;6856;51.460;7.158;2022-07-29T07:13:54;21.20;49.90
13569;DHT22;6856;51.460;7.158;2022-07-29T07:16:36;21.30;49.70
13569;DHT22;6856;51.460;7.158;2022-07-29T07:19:10;21.30;49.50
13569;DHT22;6856;51.460;7.158;2022-07-29T07:21:45;21.40;49.50
13569;DHT22;6856;51.460;7.158;2022-07-29T07:24:20;21.40;49.60
13569;DHT22;6856;51.460;7.158;2022-07-29T07:26:55;21.50;49.70
13569;DHT22;6856;51.460;7.158;2022-07-29T07:29:31;21.60;49.50
13569;DHT22;6856;51.460;7.158;2022-07-29T07:32:07;21.70;49.60
13569;DHT22;6856;51.460;7.158;2022-07-29T07:34:41;21.70;49.60
13569;DHT22;6856;51.460;7.158;2022-07-29T07:37:16;21.80;49.50
13569;DHT22;6856;51.460;7.158;2022-07-29T07:39:52;21.80;49.50
13569;DHT22;6856;51.460;7.158;2022-07-29T07:42:27;21.90;49.50
13569;DHT22;6856;51.460;7.158;2022-07-29T07:45:02;22.00;49.50
13569;DHT22;6856;51.460;7.158;2022-07-29T07:47:46;22.00;49.30
13569;DHT22;6856;51.460;7.158;2022-07-29T07:50:25;22.10;49.10
13569;DHT22;6856;51.460;7.158;2022-07-29T07:52:59;22.10;49.20
13569;DHT22;6856;51.460;7.158;2022-07-29T07:55:39;22.20;49.40
13569;DHT22;6856;51.460;7.158;2022-07-29T07:58:34;22.20;49.50
13569;DHT22;6856;51.460;7.158;2022-07-29T08:01:09;22.20;49.30
13569;DHT22;6856;51.460;7.158;2022-07-29T08:03:45;22.20;49.30
13569;DHT22;6856;51.460;7.158;2022-07-29T08:06:20;22.30;49.10
13569;DHT22;6856;51.460;7.158;2022-07-29T08:08:57;22.30;49.30
13569;DHT22;6856;51.460;7.158;2022-07-29T08:11:57;22.30;49.50
13569;DHT22;6856;51.460;7.158;2022-07-29T08:14:35;22.40;49.90
13569;DHT22;6856;51.460;7.158;2022-07-29T08:17:10;22.40;49.50
13569;DHT22;6856;51.460;7.158;2022-07-29T08:19:47;22.40;49.30
13569;DHT22;6856;51.460;7.158;2022-07-29T08:22:22;22.50;49.00
13569;DHT22;6856;51.460;7.158;2022-07-29T08:24:56;22.50;49.00
13569;DHT22;6856;51.460;7.158;2022-07-29T08:27:30;22.50;49.00
13569;DHT22;6856;51.460;7.158;2022-07-29T08:30:15;22.60;48.90
13569;DHT22;6856;51.460;7.158;2022-07-29T08:32:49;22.70;49.10
13569;DHT22;6856;51.460;7.158;2022-07-29T08:35:28;22.70;49.00
13569;DHT22;6856;51.460;7.158;2022-07-29T08:38:07;22.50;49.00
13569;DHT22;6856;51.460;7.158;2022-07-29T08:40:42;22.70;49.30
13569;DHT22;6856;51.460;7.158;2022-07-29T08:43:17;22.70;49.10
13569;DHT22;6856;51.460;7.158;2022-07-29T08:45:51;22.70;49.00
13569;DHT22;6856;51.460;7.158;2022-07-29T08:48:26;22.80;49.40
13569;DHT22;6856;51.460;7.158;2022-07-29T08:51:02;22.80;49.50
13569;DHT22;6856;51.460;7.158;2022-07-29T08:53:36;22.80;49.50
13569;DHT22;6856;51.460;7.158;2022-07-29T08:56:14;22.80;49.60
13569;DHT22;6856;51.460;7.158;2022-07-29T08:58:50;22.80;49.50
13569;DHT22;6856;51.460;7.158;2022-07-29T09:01:27;22.80;49.50
13569;DHT22;6856;51.460;7.158;2022-07-29T09:04:14;22.80;49.50
13569;DHT22;6856;51.460;7.158;2022-07-29T09:06:52;22.80;49.50
13569;DHT22;6856;51.460;7.158;2022-07-29T09:09:28;22.80;49.60
13569;DHT22;6856;51.460;7.158;2022-07-29T09:12:03;22.80;49.50
13569;DHT22;6856;51.460;7.158;2022-07-29T09:14:42;22.80;49.60
13569;DHT22;6856;51.460;7.158;2022-07-29T09:17:39;22.80;49.70
13569;DHT22;6856;51.460;7.158;2022-07-29T09:20:15;22.70;49.80
13569;DHT22;6856;51.460;7.158;2022-07-29T09:22:52;22.70;49.50
13569;DHT22;6856;51.460;7.158;2022-07-29T09:25:33;22.60;49.80
13569;DHT22;6856;51.460;7.158;2022-07-29T09:28:08;22.50;50.10
13569;DHT22;6856;51.460;7.158;2022-07-29T09:30:51;22.50;50.00
13569;DHT22;6856;51.460;7.158;2022-07-29T09:33:32;22.50;50.20
13569;DHT22;6856;51.460;7.158;2022-07-29T09:36:09;22.40;50.10
13569;DHT22;6856;51.460;7.158;2022-07-29T09:38:57;22.40;50.20
13569;DHT22;6856;51.460;7.158;2022-07-29T09:41:44;22.40;50.40
13569;DHT22;6856;51.460;7.158;2022-07-29T09:44:20;22.40;50.60
13569;DHT22;6856;51.460;7.158;2022-07-29T09:46:57;22.40;50.60
13569;DHT22;6856;51.460;7.158;2022-07-29T09:49:51;22.40;50.70
13569;DHT22;6856;51.460;7.158;2022-07-29T09:52:29;22.40;50.80
13569;DHT22;6856;51.460;7.158;2022-07-29T09:55:09;22.40;50.40
13569;DHT22;6856;51.460;7.158;2022-07-29T09:57:49;22.40;50.90
13569;DHT22;6856;51.460;7.158;2022-07-29T10:00:25;22.40;50.80
13569;DHT22;6856;51.460;7.158;2022-07-29T10:03:00;22.40;51.00
13569;DHT22;6856;51.460;7.158;2022-07-29T10:05:35;22.50;51.20
13569;DHT22;6856;51.460;7.158;2022-07-29T10:08:10;22.40;50.60
13569;DHT22;6856;51.460;7.158;2022-07-29T22:27:39;23.10;48.30
13569;DHT22;6856;51.460;7.158;2022-07-29T22:30:13;23.10;49.30
13569;DHT22;6856;51.460;7.158;2022-07-29T22:32:48;23.00;49.50
13569;DHT22;6856;51.460;7.158;2022-07-29T22:35:21;23.00;49.60
13569;DHT22;6856;51.460;7.158;2022-07-29T22:37:55;23.00;49.80
13569;DHT22;6856;51.460;7.158;2022-07-29T22:40:28;23.00;49.80
13569;DHT22;6856;51.460;7.158;2022-07-29T22:43:06;23.00;49.90
13569;DHT22;6856;51.460;7.158;2022-07-29T22:45:40;23.00;50.30
13569;DHT22;6856;51.460;7.158;2022-07-29T22:48:14;23.00;50.00
13569;DHT22;6856;51.460;7.158;2022-07-29T22:50:47;23.00;50.10
13569;DHT22;6856;51.460;7.158;2022-07-29T22:53:21;23.00;50.00
13569;DHT22;6856;51.460;7.158;2022-07-29T22:55:54;23.00;50.10
13569;DHT22;6856;51.460;7.158;2022-07-29T22:58:29;23.00;50.30
13569;DHT22;6856;51.460;7.158;2022-07-29T23:01:03;23.00;50.30
13569;DHT22;6856;51.460;7.158;2022-07-29T23:03:39;23.00;50.30
13569;DHT22;6856;51.460;7.158;2022-07-29T23:06:22;23.00;50.40
13569;DHT22;6856;51.460;7.158;2022-07-29T23:08:55;23.00;50.40
13569;DHT22;6856;51.460;7.158;2022-07-29T23:11:29;23.00;50.40
13569;DHT22;6856;51.460;7.158;2022-07-29T23:14:04;23.00;50.60
13569;DHT22;6856;51.460;7.158;2022-07-29T23:16:40;23.00;50.70
13569;DHT22;6856;51.460;7.158;2022-07-29T23:19:14;23.00;50.60
13569;DHT22;6856;51.460;7.158;2022-07-29T23:21:48;23.00;50.70
13569;DHT22;6856;51.460;7.158;2022-07-29T23:24:21;23.00;50.70
13569;DHT22;6856;51.460;7.158;2022-07-29T23:26:55;22.90;50.80
13569;DHT22;6856;51.460;7.158;2022-07-29T23:29:30;22.90;50.90
13569;DHT22;6856;51.460;7.158;2022-07-29T23:32:07;23.00;50.90
13569;DHT22;6856;51.460;7.158;2022-07-29T23:34:41;23.00;50.90
13569;DHT22;6856;51.460;7.158;2022-07-29T23:37:15;23.00;51.00
13569;DHT22;6856;51.460;7.158;2022-07-29T23:39:48;22.90;51.00
13569;DHT22;6856;51.460;7.158;2022-07-29T23:42:22;22.90;51.00
13569;DHT22;6856;51.460;7.158;2022-07-29T23:44:57;22.90;51.10
13569;DHT22;6856;51.460;7.158;2022-07-29T23:47:30;22.90;51.10
13569;DHT22;6856;51.460;7.158;2022-07-29T23:50:04;22.90;51.20
13569;DHT22;6856;51.460;7.158;2022-07-29T23:52:39;22.90;51.30
13569;DHT22;6856;51.460;7.158;2022-07-29T23:55:13;22.90;51.30
13569;DHT22;6856;51.460;7.158;2022-07-29T23:58:08;22.90;51.30
